createdAt,value
2022-09-04T00:00:23.766Z,3.67
2022-09-04T00:03:20.158Z,3.60
2022-09-04T00:06:16.610Z,3.80
2022-09-04T00:09:09.569Z,3.40
2022-09-04T00:12:04.701Z,3.27
2022-09-04T00:15:02.744Z,3.47
2022-09-04T00:17:49.646Z,3.60
2022-09-04T00:20:46.100Z,3.10
2022-09-04T00:23:45.160Z,3.97
2022-09-04T00:26:53.030Z,3.13
2022-09-04T00:29:55.367Z,3.93
2022-09-04T00:32:51.745Z,3.10
2022-09-04T00:36:03.214Z,3.30
2022-09-04T00:38:56.077Z,3.23
2022-09-04T00:41:53.007Z,3.13
2022-09-04T00:44:58.617Z,2.73
2022-09-04T00:48:13.862Z,3.00
2022-09-04T00:51:22.049Z,2.93
2022-09-04T00:54:30.375Z,2.90
2022-09-04T00:57:29.618Z,3.13
2022-09-04T01:00:22.301Z,3.27
2022-09-04T01:03:39.531Z,3.30
2022-09-04T01:06:29.881Z,2.77
2022-09-04T01:09:37.704Z,3.10
2022-09-04T01:12:33.957Z,3.40
2022-09-04T01:15:43.377Z,2.97
2022-09-04T01:18:45.797Z,2.90
2022-09-04T01:21:49.442Z,2.93
2022-09-04T01:24:39.706Z,2.80
2022-09-04T01:28:03.558Z,2.63
2022-09-04T01:31:14.558Z,3.10
2022-09-04T01:34:31.551Z,3.20
2022-09-04T01:37:42.127Z,2.90
2022-09-04T01:40:38.081Z,3.00
2022-09-04T01:43:25.547Z,3.00
2022-09-04T01:46:26.306Z,2.93
2022-09-04T01:49:36.706Z,2.90
2022-09-04T01:52:45.983Z,2.83
2022-09-04T01:55:59.359Z,2.80
2022-09-04T01:59:11.049Z,3.00
2022-09-04T02:02:34.622Z,2.97
2022-09-04T02:05:24.734Z,2.93
2022-09-04T02:08:43.847Z,2.77
2022-09-04T02:11:32.131Z,3.10
2022-09-04T02:14:37.356Z,2.83
2022-09-04T02:17:41.266Z,2.90
2022-09-04T02:20:31.148Z,3.00
2022-09-04T02:24:05.149Z,3.60
2022-09-04T02:27:06.805Z,3.10
2022-09-04T02:30:01.526Z,3.47
2022-09-04T02:33:06.616Z,3.20
2022-09-04T02:36:21.370Z,3.93
2022-09-04T02:39:08.254Z,2.90
2022-09-04T02:42:19.682Z,3.17
2022-09-04T02:45:34.554Z,3.37
2022-09-04T02:48:44.184Z,3.07
2022-09-04T02:51:56.266Z,3.23
2022-09-04T02:55:03.861Z,3.10
2022-09-04T02:58:26.975Z,3.53
2022-09-04T03:01:31.438Z,3.50
2022-09-04T03:04:41.752Z,3.20
2022-09-04T03:07:45.110Z,3.00
2022-09-04T03:10:41.818Z,3.80
2022-09-04T03:14:10.394Z,3.53
2022-09-04T03:17:09.432Z,3.10
2022-09-04T03:20:18.344Z,3.27
2022-09-04T03:23:20.778Z,3.50
2022-09-04T03:26:07.663Z,3.60
2022-09-04T03:29:16.318Z,3.50
2022-09-04T03:32:24.384Z,3.27
2022-09-04T03:35:26.636Z,3.50
2022-09-04T03:38:25.513Z,3.47
2022-09-04T03:41:25.287Z,3.50
2022-09-04T03:44:31.413Z,3.90
2022-09-04T03:47:38.564Z,3.80
2022-09-04T03:50:48.769Z,3.53
2022-09-04T03:53:50.853Z,4.10
2022-09-04T03:56:41.370Z,3.70
2022-09-04T03:59:38.040Z,3.80
2022-09-04T04:05:03.888Z,3.80
2022-09-04T04:08:28.190Z,3.80
2022-09-04T04:11:45.281Z,3.53
2022-09-04T04:15:11.826Z,3.20
2022-09-04T04:18:04.685Z,3.17
2022-09-04T04:21:17.537Z,3.47
2022-09-04T04:24:21.344Z,3.57
2022-09-04T04:27:33.903Z,3.90
2022-09-04T04:30:21.233Z,3.20
2022-09-04T04:33:14.698Z,4.00
2022-09-04T04:36:42.901Z,3.80
2022-09-04T04:39:42.067Z,3.67
2022-09-04T04:42:45.697Z,4.00
2022-09-04T04:45:53.028Z,3.80
2022-09-04T04:49:20.009Z,3.13
2022-09-04T04:52:20.171Z,3.60
2022-09-04T04:55:38.774Z,3.90
2022-09-04T04:58:44.282Z,3.80
2022-09-04T05:01:47.097Z,3.83
2022-09-04T05:04:54.513Z,3.57
2022-09-04T05:07:52.805Z,4.10
2022-09-04T05:10:47.394Z,4.10
2022-09-04T05:13:53.027Z,3.60
2022-09-04T05:17:01.686Z,3.83
2022-09-04T05:20:40.058Z,3.70
2022-09-04T05:23:30.421Z,4.40
2022-09-04T05:26:36.725Z,3.43
2022-09-04T05:30:00.069Z,3.77
2022-09-04T05:33:02.324Z,3.67
2022-09-04T05:36:02.447Z,4.20
2022-09-04T05:38:57.285Z,3.87
2022-09-04T05:42:16.890Z,3.93
2022-09-04T05:45:13.458Z,3.77
2022-09-04T05:48:38.006Z,3.60
2022-09-04T05:51:46.648Z,3.93
2022-09-04T05:54:42.657Z,4.07
2022-09-04T05:57:29.581Z,3.40
2022-09-04T06:00:20.441Z,4.00
2022-09-04T06:03:29.305Z,3.60
2022-09-04T06:06:39.317Z,4.10
2022-09-04T06:09:39.503Z,3.67
2022-09-04T06:12:46.742Z,3.43
2022-09-04T06:15:40.432Z,3.60
2022-09-04T06:18:46.961Z,3.50
2022-09-04T06:21:43.059Z,3.67
2022-09-04T06:25:16.095Z,3.93
2022-09-04T06:28:21.343Z,3.80
2022-09-04T06:31:20.680Z,3.63
2022-09-04T06:34:35.519Z,3.37
2022-09-04T06:37:53.173Z,3.70
2022-09-04T06:40:59.721Z,4.17
2022-09-04T06:44:01.392Z,3.10
2022-09-04T06:47:06.550Z,3.70
2022-09-04T06:50:18.823Z,4.20
2022-09-04T06:53:41.904Z,3.53
2022-09-04T06:56:47.701Z,3.50
2022-09-04T06:59:59.469Z,3.57
2022-09-04T07:06:15.851Z,3.60
2022-09-04T07:09:36.676Z,3.63
2022-09-04T07:12:52.163Z,3.40
2022-09-04T07:15:48.437Z,3.33
2022-09-04T07:18:58.058Z,3.43
2022-09-04T07:21:45.014Z,3.80
2022-09-04T07:24:55.562Z,3.50
2022-09-04T07:27:57.346Z,3.60
2022-09-04T07:30:54.419Z,3.40
2022-09-04T07:34:02.494Z,3.33
2022-09-04T07:36:55.321Z,3.60
2022-09-04T07:40:01.233Z,3.50
2022-09-04T07:43:13.552Z,3.33
2022-09-04T07:46:14.296Z,3.40
2022-09-04T07:49:12.834Z,3.40
2022-09-04T07:52:20.115Z,3.40
2022-09-04T07:55:17.326Z,3.40
2022-09-04T07:58:23.044Z,3.37
2022-09-04T08:01:19.498Z,3.60
2022-09-04T08:04:38.294Z,3.20
2022-09-04T08:07:48.720Z,3.90
2022-09-04T08:11:13.556Z,3.60
2022-09-04T08:14:19.022Z,3.20
2022-09-04T08:17:25.551Z,3.00
2022-09-04T08:20:24.714Z,3.40
2022-09-04T08:23:24.873Z,3.70
2022-09-04T08:26:24.372Z,3.70
2022-09-04T08:29:17.306Z,3.27
2022-09-04T08:32:46.359Z,3.23
2022-09-04T08:35:53.663Z,3.30
2022-09-04T08:39:11.293Z,3.40
2022-09-04T08:42:53.788Z,2.83
2022-09-04T08:45:55.669Z,3.40
2022-09-04T08:48:51.674Z,3.50
2022-09-04T08:51:53.869Z,3.57
2022-09-04T08:55:19.306Z,2.87
2022-09-04T08:58:29.215Z,3.47
2022-09-04T09:01:41.158Z,3.40
2022-09-04T09:04:31.149Z,3.50
2022-09-04T09:07:21.111Z,3.43
2022-09-04T09:10:45.059Z,3.53
2022-09-04T09:13:53.724Z,3.23
2022-09-04T09:17:03.091Z,3.40
2022-09-04T09:20:18.071Z,3.10
2022-09-04T09:23:38.831Z,3.50
2022-09-04T09:27:23.094Z,3.10
2022-09-04T09:30:21.681Z,3.83
2022-09-04T09:33:29.280Z,3.43
2022-09-04T09:37:02.612Z,3.40
2022-09-04T09:40:01.741Z,2.90
2022-09-04T09:43:01.204Z,3.27
2022-09-04T09:46:22.259Z,3.33
2022-09-04T09:49:36.133Z,3.30
2022-09-04T09:53:01.317Z,3.47
2022-09-04T09:56:21.752Z,3.25
2022-09-04T09:59:09.731Z,3.63
2022-09-04T10:02:21.090Z,3.20
2022-09-04T10:05:07.991Z,3.10
2022-09-04T10:08:10.664Z,3.05
2022-09-04T10:11:10.249Z,3.00
2022-09-04T10:13:57.175Z,3.20
2022-09-04T10:17:22.799Z,3.00
2022-09-04T10:20:34.406Z,2.90
2022-09-04T10:23:40.174Z,2.58
2022-09-04T10:27:03.234Z,2.83
2022-09-04T10:30:02.932Z,2.70
2022-09-04T10:33:07.931Z,2.70
2022-09-04T10:36:17.073Z,2.55
2022-09-04T10:39:48.295Z,2.83
2022-09-04T10:42:53.548Z,2.88
2022-09-04T10:46:08.572Z,3.13
2022-09-04T10:49:33.846Z,3.08
2022-09-04T10:52:51.666Z,2.83
2022-09-04T10:55:57.759Z,2.95
2022-09-04T10:59:03.581Z,3.40
2022-09-04T11:02:25.430Z,2.80
2022-09-04T11:05:21.733Z,3.08
2022-09-04T11:08:36.636Z,3.20
2022-09-04T11:11:26.747Z,3.00
2022-09-04T11:14:28.983Z,3.05
2022-09-04T11:17:37.786Z,3.13
2022-09-04T11:20:40.644Z,2.80
2022-09-04T11:23:52.210Z,2.65
2022-09-04T11:27:06.032Z,2.65
2022-09-04T11:30:12.155Z,3.13
2022-09-04T11:33:22.975Z,3.13
2022-09-04T11:37:01.179Z,2.88
2022-09-04T11:39:55.259Z,2.50
2022-09-04T11:42:51.321Z,2.65
2022-09-04T11:45:56.410Z,2.58
2022-09-04T11:49:09.364Z,2.50
2022-09-04T11:52:09.124Z,3.00
2022-09-04T11:55:34.009Z,2.53
2022-09-04T11:58:47.258Z,2.50
2022-09-04T12:01:52.652Z,2.65
2022-09-04T12:04:58.157Z,2.75
2022-09-04T12:07:59.509Z,2.70
2022-09-04T12:11:05.228Z,2.38
2022-09-04T12:14:10.563Z,3.10
2022-09-04T12:17:23.782Z,2.50
2022-09-04T12:20:10.717Z,3.17
2022-09-04T12:23:02.989Z,3.05
2022-09-04T12:26:03.618Z,2.90
2022-09-04T12:29:08.893Z,3.05
2022-09-04T12:32:04.998Z,2.85
2022-09-04T12:35:17.251Z,2.45
2022-09-04T12:38:36.012Z,2.90
2022-09-04T12:41:57.102Z,2.65
2022-09-04T12:44:50.650Z,2.75
2022-09-04T12:47:57.200Z,3.05
2022-09-04T12:50:59.790Z,2.80
2022-09-04T12:54:07.369Z,2.80
2022-09-04T12:57:24.591Z,2.92
2022-09-04T13:00:16.300Z,2.42
2022-09-04T13:03:23.651Z,3.03
2022-09-04T13:06:27.530Z,2.42
2022-09-04T13:09:17.462Z,2.85
2022-09-04T13:12:07.485Z,2.75
2022-09-04T13:15:04.349Z,2.83
2022-09-04T13:18:16.241Z,2.88
2022-09-04T13:21:12.293Z,2.75
2022-09-04T13:24:31.877Z,2.72
2022-09-04T13:27:46.353Z,2.60
2022-09-04T13:30:40.425Z,2.30
2022-09-04T13:33:49.574Z,2.35
2022-09-04T13:36:45.700Z,2.70
2022-09-04T13:40:06.790Z,2.80
2022-09-04T13:43:12.042Z,2.95
2022-09-04T13:46:07.210Z,2.50
2022-09-04T13:49:02.727Z,3.00
2022-09-04T13:52:20.257Z,2.80
2022-09-04T13:55:18.234Z,2.85
2022-09-04T13:58:13.263Z,2.75
2022-09-04T14:01:03.113Z,2.53
2022-09-04T14:04:01.817Z,2.72
2022-09-04T14:06:50.058Z,2.55
2022-09-04T14:09:43.791Z,2.83
2022-09-04T14:12:36.786Z,2.58
2022-09-04T14:15:40.292Z,2.60
2022-09-04T14:18:29.974Z,2.42
2022-09-04T14:21:35.258Z,2.60
2022-09-04T14:24:35.054Z,2.42
2022-09-04T14:27:38.041Z,2.60
2022-09-04T14:30:25.343Z,2.95
2022-09-04T14:33:28.950Z,2.50
2022-09-04T14:36:56.479Z,2.70
2022-09-04T14:39:48.673Z,1.98
2022-09-04T14:42:45.615Z,2.50
2022-09-04T14:46:06.938Z,2.58
2022-09-04T14:49:06.210Z,2.75
2022-09-04T14:51:56.743Z,2.47
2022-09-04T14:54:46.720Z,2.50
2022-09-04T14:57:36.413Z,2.80
2022-09-04T15:00:24.813Z,2.72
2022-09-04T15:03:18.738Z,2.40
2022-09-04T15:06:16.313Z,2.42
2022-09-04T15:09:25.204Z,2.47
2022-09-04T15:12:28.693Z,2.50
2022-09-04T15:15:21.592Z,2.42
2022-09-04T15:18:23.677Z,2.47
2022-09-04T15:21:25.635Z,2.58
2022-09-04T15:24:33.884Z,2.67
2022-09-04T15:27:46.121Z,2.40
2022-09-04T15:30:45.302Z,2.60
2022-09-04T15:33:32.621Z,2.45
2022-09-04T15:36:27.674Z,2.60
2022-09-04T15:39:29.222Z,2.92
2022-09-04T15:42:41.898Z,2.38
2022-09-04T15:45:50.783Z,2.72
2022-09-04T15:48:53.293Z,2.60
2022-09-04T15:51:46.252Z,2.92
2022-09-04T15:54:55.173Z,2.85
2022-09-04T15:57:50.717Z,2.53
2022-09-04T16:00:41.091Z,2.40
2022-09-04T16:03:38.047Z,2.53
2022-09-04T16:06:33.001Z,2.55
2022-09-04T16:09:27.910Z,2.40
2022-09-04T16:12:21.481Z,2.75
2022-09-04T16:15:17.017Z,2.63
2022-09-04T16:18:45.970Z,2.60
2022-09-04T16:21:51.646Z,2.28
2022-09-04T16:24:47.374Z,2.65
2022-09-04T16:28:08.921Z,2.53
2022-09-04T16:31:11.601Z,2.90
2022-09-04T16:34:05.842Z,2.90
2022-09-04T16:37:20.103Z,2.63
2022-09-04T18:04:20.514Z,3.03
2022-09-04T18:08:08.139Z,2.70
2022-09-04T18:15:47.874Z,3.00
2022-09-04T18:19:38.807Z,2.57
2022-09-04T18:23:03.251Z,3.17
2022-09-04T18:26:21.574Z,2.80
2022-09-04T18:33:07.164Z,2.70
2022-09-04T18:37:19.828Z,2.90
2022-09-04T18:37:20.960Z,2.70
2022-09-04T18:41:48.103Z,2.90
2022-09-04T18:50:20.300Z,2.90
2022-09-04T18:50:50.533Z,2.70
2022-09-04T18:51:19.575Z,3.07
2022-09-04T18:53:51.665Z,3.17
2022-09-04T19:01:27.212Z,3.00
2022-09-04T19:09:22.467Z,3.23
2022-09-04T19:24:54.974Z,3.50
2022-09-04T21:46:28.967Z,4.60
2022-09-04T21:49:35.714Z,3.90
2022-09-04T21:52:44.698Z,3.63
2022-09-04T21:59:50.640Z,4.00
2022-09-04T22:02:39.911Z,4.27
2022-09-04T22:03:20.320Z,4.30
2022-09-04T22:06:36.655Z,4.40
2022-09-04T22:13:31.541Z,3.60
2022-09-04T22:13:42.964Z,4.20
2022-09-04T22:16:16.523Z,4.30
2022-09-04T22:19:33.595Z,4.23
2022-09-04T22:22:59.727Z,4.30
2022-09-04T22:26:23.622Z,3.90
2022-09-04T22:30:01.336Z,4.20
2022-09-04T22:33:10.103Z,4.07
2022-09-04T22:36:30.842Z,4.13
2022-09-04T22:39:47.875Z,4.20
2022-09-04T22:43:04.899Z,4.33
2022-09-04T22:46:32.193Z,4.60
2022-09-04T22:49:19.284Z,4.30
2022-09-04T22:52:12.537Z,4.27
2022-09-04T22:55:39.711Z,4.10
2022-09-04T22:58:52.067Z,3.87
2022-09-04T23:02:19.787Z,4.70
2022-09-04T23:06:32.479Z,4.00
2022-09-04T23:13:42.881Z,4.20
2022-09-04T23:14:00.284Z,4.37
2022-09-04T23:16:11.595Z,4.30
2022-09-04T23:21:09.203Z,4.83
2022-09-04T23:26:47.009Z,4.47
2022-09-04T23:26:58.050Z,4.10
2022-09-04T23:29:44.457Z,4.67
2022-09-04T23:32:44.738Z,4.10
2022-09-04T23:35:50.911Z,4.30
2022-09-04T23:39:02.981Z,4.17
2022-09-04T23:42:27.543Z,4.83
2022-09-04T23:45:21.078Z,4.37
2022-09-04T23:48:28.995Z,4.13
2022-09-04T23:51:22.231Z,4.53
2022-09-04T23:54:34.203Z,4.30
2022-09-04T23:57:28.244Z,4.70
